createdAt,value
2018-01-20T00:00:16.097Z,3.67
2018-01-20T00:02:42.851Z,2.57
2018-01-20T00:05:09.611Z,2.27
2018-01-20T00:07:36.301Z,2.50
2018-01-20T00:10:12.569Z,2.43
2018-01-20T00:12:38.509Z,2.03
2018-01-20T00:15:04.525Z,3.40
2018-01-20T00:17:30.523Z,2.17
2018-01-20T00:19:57.960Z,3.27
2018-01-20T00:22:23.901Z,2.13
2018-01-20T00:24:56.080Z,3.73
2018-01-20T00:27:22.052Z,2.17
2018-01-20T00:29:47.996Z,2.50
2018-01-20T00:32:14.699Z,3.40
2018-01-20T00:34:40.657Z,2.63
2018-01-20T00:37:06.640Z,2.20
2018-01-20T00:39:33.334Z,1.90
2018-01-20T00:41:59.288Z,3.00
2018-01-20T00:44:25.302Z,2.73
2018-01-20T00:46:51.243Z,5.07
2018-01-20T00:49:17.224Z,1.67
2018-01-20T00:51:43.908Z,1.90
2018-01-20T00:54:09.848Z,2.20
2018-01-20T00:56:35.840Z,2.97
2018-01-20T00:59:02.523Z,5.17
2018-01-20T01:01:28.484Z,2.30
2018-01-20T01:03:54.428Z,2.17
2018-01-20T01:06:20.414Z,1.40
2018-01-20T01:08:47.097Z,1.97
2018-01-20T01:11:13.044Z,2.10
2018-01-20T01:13:39.143Z,1.90
2018-01-20T01:16:05.815Z,2.07
2018-01-20T01:18:31.795Z,1.60
2018-01-20T01:20:57.749Z,3.30
2018-01-20T01:23:24.431Z,3.63
2018-01-20T01:25:50.412Z,2.10
2018-01-20T01:28:16.364Z,4.07
2018-01-20T01:30:42.309Z,2.50
2018-01-20T01:33:09.024Z,2.10
2018-01-20T01:35:34.992Z,1.50
2018-01-20T01:38:00.979Z,1.87
2018-01-20T01:40:26.948Z,1.80
2018-01-20T01:42:52.924Z,1.87
2018-01-20T01:45:18.868Z,1.63
2018-01-20T01:47:44.854Z,1.83
2018-01-20T01:50:10.848Z,1.60
2018-01-20T01:52:36.791Z,3.80
2018-01-20T01:55:02.751Z,2.10
2018-01-20T01:57:28.780Z,2.50
2018-01-20T01:59:54.736Z,1.87
2018-01-20T02:02:20.676Z,4.40
2018-01-20T02:04:46.650Z,2.60
2018-01-20T02:07:12.599Z,1.73
2018-01-20T02:09:38.592Z,3.13
2018-01-20T02:12:05.281Z,1.40
2018-01-20T02:14:31.220Z,1.57
2018-01-20T02:16:57.236Z,1.50
2018-01-20T02:19:23.180Z,2.10
2018-01-20T02:21:49.159Z,1.40
2018-01-20T02:24:15.144Z,2.23
2018-01-20T02:26:41.085Z,1.93
2018-01-20T02:29:07.028Z,1.90
2018-01-20T02:31:33.004Z,1.63
2018-01-20T02:33:58.946Z,2.13
2018-01-20T02:36:24.932Z,2.33
2018-01-20T02:38:50.875Z,1.63
2018-01-20T02:41:16.863Z,2.00
2018-01-20T02:43:43.594Z,2.17
2018-01-20T02:46:09.544Z,1.70
2018-01-20T02:48:35.528Z,1.33
2018-01-20T02:51:01.467Z,2.10
2018-01-20T02:53:27.449Z,2.03
2018-01-20T02:55:53.451Z,1.57
2018-01-20T02:58:19.439Z,1.40
2018-01-20T03:00:46.165Z,1.73
2018-01-20T03:03:12.196Z,1.67
2018-01-20T03:05:38.200Z,1.57
2018-01-20T03:08:04.139Z,1.70
2018-01-20T03:10:30.074Z,3.83
2018-01-20T03:12:56.055Z,2.80
2018-01-20T03:15:21.997Z,1.40
2018-01-20T03:17:47.964Z,1.90
2018-01-20T03:20:13.891Z,1.60
2018-01-20T03:22:40.627Z,1.77
2018-01-20T03:25:06.564Z,1.70
2018-01-20T03:27:33.248Z,1.63
2018-01-20T03:29:59.210Z,1.43
2018-01-20T03:32:25.184Z,2.10
2018-01-20T03:34:51.890Z,2.10
2018-01-20T03:37:17.875Z,1.30
2018-01-20T03:39:44.564Z,1.70
2018-01-20T03:42:10.576Z,1.77
2018-01-20T03:44:37.296Z,3.00
2018-01-20T03:47:03.253Z,1.37
2018-01-20T03:49:29.975Z,1.60
2018-01-20T03:51:55.940Z,1.53
2018-01-20T03:54:22.652Z,1.67
2018-01-20T03:56:48.615Z,1.57
2018-01-20T03:59:14.591Z,2.60
2018-01-20T04:01:40.562Z,4.40
2018-01-20T04:04:06.515Z,1.50
2018-01-20T04:06:32.480Z,1.90
2018-01-20T04:08:59.155Z,1.73
2018-01-20T04:11:25.145Z,1.50
2018-01-20T04:13:51.095Z,1.47
2018-01-20T04:16:17.861Z,2.90
2018-01-20T04:18:44.539Z,2.83
2018-01-20T04:21:10.525Z,1.50
2018-01-20T04:23:36.491Z,1.33
2018-01-20T04:26:03.208Z,1.67
2018-01-20T04:28:29.149Z,1.57
2018-01-20T04:30:55.123Z,1.77
2018-01-20T04:33:21.071Z,2.00
2018-01-20T04:35:47.056Z,2.00
2018-01-20T04:38:13.039Z,2.10
2018-01-20T04:40:39.016Z,1.70
2018-01-20T04:43:04.959Z,1.50
2018-01-20T04:45:31.000Z,2.20
2018-01-20T04:47:56.943Z,1.23
2018-01-20T04:50:23.616Z,2.20
2018-01-20T04:52:49.599Z,1.67
2018-01-20T04:55:15.571Z,1.33
2018-01-20T04:57:42.263Z,1.63
2018-01-20T05:00:08.236Z,2.40
2018-01-20T05:02:34.176Z,1.10
2018-01-20T05:05:00.888Z,1.27
2018-01-20T05:07:26.846Z,1.17
2018-01-20T05:09:52.788Z,1.50
2018-01-20T05:12:18.751Z,2.10
2018-01-20T05:14:45.427Z,2.23
2018-01-20T05:17:11.399Z,1.80
2018-01-20T05:19:37.335Z,1.13
2018-01-20T05:22:03.331Z,1.60
2018-01-20T05:24:29.271Z,1.77
2018-01-20T05:26:55.251Z,1.43
2018-01-20T05:29:21.215Z,1.63
2018-01-20T05:31:48.091Z,1.53
2018-01-20T05:34:14.767Z,1.90
2018-01-20T05:36:40.719Z,0.93
2018-01-20T05:39:06.692Z,1.30
2018-01-20T05:41:32.636Z,1.30
2018-01-20T05:43:58.625Z,1.30
2018-01-20T05:46:24.569Z,1.97
2018-01-20T05:48:50.519Z,1.30
2018-01-20T05:51:16.519Z,1.53
2018-01-20T05:53:42.459Z,1.57
2018-01-20T05:56:08.468Z,1.83
2018-01-20T05:58:35.161Z,2.10
2018-01-20T06:01:01.139Z,1.50
2018-01-20T06:03:27.094Z,1.40
2018-01-20T06:05:53.083Z,1.20
2018-01-20T06:08:19.036Z,1.30
2018-01-20T06:10:44.984Z,1.40
2018-01-20T06:13:11.707Z,1.53
2018-01-20T06:15:37.689Z,1.50
2018-01-20T06:18:04.379Z,1.20
2018-01-20T06:20:30.320Z,1.30
2018-01-20T06:22:56.312Z,1.50
2018-01-20T06:25:23.055Z,3.10
2018-01-20T06:27:49.780Z,1.40
2018-01-20T06:30:15.726Z,2.50
2018-01-20T06:32:41.713Z,1.47
2018-01-20T06:35:07.700Z,1.70
2018-01-20T06:37:33.639Z,1.37
2018-01-20T06:39:59.584Z,1.40
2018-01-20T06:42:26.287Z,1.90
2018-01-20T06:44:52.227Z,1.10
2018-01-20T06:47:18.205Z,1.60
2018-01-20T06:49:44.880Z,1.10
2018-01-20T06:52:10.857Z,2.50
2018-01-20T06:54:36.796Z,1.27
2018-01-20T06:57:02.787Z,1.30
2018-01-20T06:59:28.723Z,1.57
2018-01-20T07:01:54.746Z,1.30
2018-01-20T07:04:21.427Z,1.17
2018-01-20T07:06:47.392Z,1.63
2018-01-20T07:09:13.399Z,2.00
2018-01-20T07:11:39.375Z,1.23
2018-01-20T07:14:05.355Z,1.50
2018-01-20T07:16:32.545Z,9.73
2018-01-20T07:18:59.608Z,10.07
2018-01-20T07:21:26.665Z,9.07
2018-01-20T07:23:52.639Z,9.40
2018-01-20T07:26:18.583Z,9.40
2018-01-20T07:28:45.299Z,8.87
2018-01-20T07:31:11.235Z,11.83
2018-01-20T07:33:37.173Z,14.87
2018-01-20T07:36:03.154Z,13.37
2018-01-20T07:38:29.872Z,11.67
2018-01-20T07:40:55.896Z,9.93
2018-01-20T07:43:21.876Z,10.73
2018-01-20T07:45:48.597Z,10.00
2018-01-20T07:48:14.572Z,9.77
2018-01-20T07:50:41.258Z,12.47
2018-01-20T07:53:07.243Z,11.77
2018-01-20T07:55:33.175Z,10.20
2018-01-20T07:57:59.111Z,6.00
2018-01-20T08:00:25.828Z,12.60
2018-01-20T08:02:51.772Z,5.70
2018-01-20T08:05:17.758Z,6.50
2018-01-20T08:07:43.718Z,7.40
2018-01-20T08:10:09.687Z,4.77
2018-01-20T08:12:35.670Z,4.60
2018-01-20T08:15:01.645Z,5.60
2018-01-20T08:17:27.667Z,5.37
2018-01-20T08:19:53.599Z,6.60
2018-01-20T08:22:19.537Z,6.43
2018-01-20T08:24:45.499Z,6.70
2018-01-20T08:27:11.484Z,4.03
2018-01-20T08:29:37.459Z,5.37
2018-01-20T08:32:03.440Z,4.57
2018-01-20T08:34:30.123Z,4.70
2018-01-20T08:36:56.115Z,6.07
2018-01-20T08:39:22.807Z,5.80
2018-01-20T08:41:48.782Z,4.53
2018-01-20T08:44:14.731Z,5.83
2018-01-20T08:46:40.711Z,4.20
2018-01-20T08:49:06.652Z,6.20
2018-01-20T08:51:32.636Z,5.67
2018-01-20T08:53:58.595Z,4.23
2018-01-20T08:56:25.324Z,4.57
2018-01-20T08:58:52.007Z,4.63
2018-01-20T09:01:17.943Z,4.60
2018-01-20T09:03:43.915Z,4.90
2018-01-20T09:06:09.864Z,4.90
2018-01-20T09:08:35.840Z,5.30
2018-01-20T09:11:02.519Z,5.47
2018-01-20T09:13:28.520Z,5.10
2018-01-20T09:15:55.222Z,19.73
2018-01-20T09:18:21.171Z,4.80
2018-01-20T09:20:47.155Z,4.30
2018-01-20T09:23:13.135Z,4.50
2018-01-20T09:25:39.107Z,4.77
2018-01-20T09:28:05.861Z,5.87
2018-01-20T09:30:39.504Z,4.50
2018-01-20T09:33:05.476Z,9.63
2018-01-20T09:35:31.476Z,4.93
2018-01-20T09:37:57.479Z,4.17
2018-01-20T09:40:23.468Z,5.23
2018-01-20T09:42:49.417Z,6.67
2018-01-20T09:45:15.393Z,6.53
2018-01-20T09:47:42.088Z,5.50
2018-01-20T09:50:08.062Z,6.93
2018-01-20T09:52:34.014Z,4.17
2018-01-20T09:54:59.999Z,4.90
2018-01-20T09:57:25.987Z,4.60
2018-01-20T09:59:52.720Z,8.33
2018-01-20T10:02:18.707Z,7.80
2018-01-20T10:04:44.654Z,5.13
2018-01-20T10:07:10.643Z,7.17
2018-01-20T10:09:37.321Z,7.47
2018-01-20T10:12:03.320Z,3.40
2018-01-20T10:14:29.284Z,5.23
2018-01-20T10:16:56.028Z,8.20
2018-01-20T10:19:22.755Z,5.67
2018-01-20T10:21:48.700Z,6.00
2018-01-20T10:24:14.683Z,3.30
2018-01-20T10:26:40.642Z,6.13
2018-01-20T10:29:06.580Z,4.60
2018-01-20T10:31:32.559Z,5.67
2018-01-20T10:33:59.276Z,10.80
2018-01-20T10:36:25.264Z,5.83
2018-01-20T10:38:51.240Z,5.07
2018-01-20T10:41:17.180Z,17.30
2018-01-20T10:43:43.181Z,9.43
2018-01-20T10:46:24.111Z,5.57
2018-01-20T10:48:50.084Z,4.70
2018-01-20T10:51:16.763Z,5.70
2018-01-20T10:53:42.756Z,5.33
2018-01-20T10:56:08.729Z,5.50
2018-01-20T10:58:34.663Z,8.73
2018-01-20T11:01:00.635Z,7.73
2018-01-20T11:03:26.571Z,8.07
2018-01-20T11:05:52.541Z,4.13
2018-01-20T11:08:20.571Z,5.23
2018-01-20T11:10:46.544Z,5.93
2018-01-20T11:13:12.516Z,4.53
2018-01-20T11:15:38.487Z,4.67
2018-01-20T11:18:04.455Z,6.00
2018-01-20T11:20:30.454Z,4.93
2018-01-20T11:22:56.467Z,7.00
2018-01-20T11:25:22.443Z,4.97
2018-01-20T11:27:48.440Z,5.50
2018-01-20T11:30:14.397Z,8.73
2018-01-20T11:32:40.323Z,3.80
2018-01-20T11:35:06.280Z,6.60
2018-01-20T11:37:32.256Z,4.33
2018-01-20T11:39:58.943Z,6.70
2018-01-20T11:42:25.004Z,4.03
2018-01-20T11:44:50.965Z,6.30
2018-01-20T11:47:16.931Z,7.53
2018-01-20T11:49:42.876Z,4.17
2018-01-20T11:52:08.807Z,5.47
2018-01-20T11:54:34.792Z,6.20
2018-01-20T11:57:00.765Z,7.53
2018-01-20T11:59:27.481Z,4.93
2018-01-20T12:01:53.420Z,6.77
2018-01-20T12:04:19.392Z,5.07
2018-01-20T12:06:46.125Z,6.23
2018-01-20T12:09:12.063Z,6.27
2018-01-20T12:11:38.746Z,5.27
2018-01-20T12:14:04.721Z,4.83
2018-01-20T12:16:30.656Z,4.30
2018-01-20T12:18:56.673Z,4.80
2018-01-20T12:21:22.617Z,4.80
2018-01-20T12:23:48.640Z,3.67
2018-01-20T12:26:15.326Z,4.00
2018-01-20T12:28:41.299Z,6.33
2018-01-20T12:31:08.017Z,4.70
2018-01-20T12:33:33.995Z,8.43
2018-01-20T12:35:59.943Z,7.40
2018-01-20T12:38:25.950Z,7.30
2018-01-20T12:40:52.675Z,4.30
2018-01-20T12:43:18.651Z,4.57
2018-01-20T12:45:44.599Z,4.40
2018-01-20T12:48:10.578Z,4.17
2018-01-20T12:50:36.522Z,5.23
2018-01-20T12:53:02.460Z,4.30
2018-01-20T12:55:28.446Z,5.60
2018-01-20T12:57:54.410Z,5.43
2018-01-20T13:00:20.351Z,6.60
2018-01-20T13:02:46.295Z,6.13
2018-01-20T13:05:12.294Z,8.67
2018-01-20T13:07:38.282Z,5.80
2018-01-20T13:10:04.994Z,4.70
2018-01-20T13:12:30.980Z,6.47
2018-01-20T13:14:57.677Z,4.10
2018-01-20T13:17:23.628Z,4.90
2018-01-20T13:19:49.616Z,11.13
2018-01-20T13:22:15.586Z,6.37
2018-01-20T13:24:41.544Z,4.00
2018-01-20T13:27:07.581Z,5.00
2018-01-20T13:29:33.548Z,4.40
2018-01-20T13:31:59.495Z,6.27
2018-01-20T13:34:25.473Z,8.73
2018-01-20T13:36:51.424Z,5.70
2018-01-20T13:39:17.396Z,6.33
2018-01-20T13:41:44.129Z,4.03
2018-01-20T13:44:10.856Z,5.20
2018-01-20T13:46:36.800Z,5.30
2018-01-20T13:49:02.788Z,8.40
2018-01-20T13:51:28.737Z,6.20
2018-01-20T13:53:54.684Z,6.63
2018-01-20T13:56:20.667Z,4.50
2018-01-20T13:58:47.353Z,4.13
2018-01-20T14:01:13.323Z,5.53
2018-01-20T14:03:39.304Z,6.00
2018-01-20T14:06:05.311Z,5.10
2018-01-20T14:08:32.758Z,6.20
2018-01-20T14:10:58.755Z,6.03
2018-01-20T14:13:24.694Z,5.23
2018-01-20T14:15:50.703Z,6.00
2018-01-20T14:18:17.424Z,4.47
2018-01-20T14:20:43.386Z,4.60
2018-01-20T14:23:10.108Z,8.53
2018-01-20T14:25:36.100Z,5.90
2018-01-20T14:28:02.036Z,4.90
2018-01-20T14:30:28.041Z,4.83
2018-01-20T14:32:54.719Z,7.37
2018-01-20T14:35:21.437Z,8.20
2018-01-20T14:37:47.426Z,4.70
2018-01-20T14:40:13.395Z,5.23
2018-01-20T14:42:39.367Z,7.63
2018-01-20T14:45:06.092Z,7.10
2018-01-20T14:47:32.811Z,6.80
2018-01-20T14:49:58.748Z,5.47
2018-01-20T14:52:24.719Z,6.00
2018-01-20T14:54:50.655Z,8.27
2018-01-20T14:57:16.659Z,6.20
2018-01-20T14:59:42.643Z,4.90
2018-01-20T15:02:09.724Z,4.27
2018-01-20T15:04:36.431Z,4.00
2018-01-20T15:07:02.418Z,4.50
2018-01-20T15:09:28.401Z,4.30
2018-01-20T15:11:54.367Z,4.33
2018-01-20T15:14:20.311Z,4.80
2018-01-20T15:16:47.011Z,4.80
2018-01-20T15:19:14.080Z,3.83
2018-01-20T15:21:40.071Z,4.37
2018-01-20T15:24:06.744Z,4.63
2018-01-20T15:26:32.714Z,5.40
2018-01-20T15:28:59.432Z,7.33
2018-01-20T15:31:25.399Z,7.57
2018-01-20T15:33:52.153Z,8.47
2018-01-20T15:36:18.095Z,8.67
2018-01-20T15:38:44.084Z,5.90
2018-01-20T15:41:10.094Z,9.10
2018-01-20T15:43:36.804Z,5.43
2018-01-20T15:46:02.783Z,7.03
2018-01-20T15:48:29.517Z,8.77
2018-01-20T15:50:55.455Z,12.00
2018-01-20T15:53:21.409Z,11.20
2018-01-20T15:55:48.111Z,9.97
2018-01-20T15:58:14.082Z,7.47
2018-01-20T16:00:40.051Z,9.73
2018-01-20T16:03:06.759Z,12.70
2018-01-20T16:05:32.754Z,10.33
2018-01-20T16:07:58.751Z,12.93
2018-01-20T16:10:24.729Z,9.50
2018-01-20T16:12:50.737Z,11.60
2018-01-20T16:15:17.431Z,14.90
2018-01-20T16:17:43.397Z,9.67
2018-01-20T16:20:09.367Z,14.00
2018-01-20T16:22:36.057Z,20.73
2018-01-20T16:25:02.065Z,16.83
2018-01-20T16:27:28.036Z,13.40
2018-01-20T16:29:54.007Z,15.70
2018-01-20T16:32:20.067Z,16.43
2018-01-20T16:34:46.786Z,18.67
2018-01-20T16:37:12.787Z,22.03
2018-01-20T16:39:38.731Z,27.57
2018-01-20T16:42:04.666Z,31.67
2018-01-20T16:44:30.645Z,35.07
2018-01-20T16:46:56.598Z,32.77
2018-01-20T16:49:23.447Z,34.67
2018-01-20T16:51:50.202Z,33.40
2018-01-20T16:54:16.968Z,31.93
2018-01-20T16:56:43.029Z,27.17
2018-01-20T16:59:09.041Z,23.90
2018-01-20T17:01:35.029Z,23.83
2018-01-20T17:04:01.018Z,24.87
2018-01-20T17:06:26.992Z,28.23
2018-01-20T17:08:52.997Z,25.00
2018-01-20T17:11:18.987Z,23.30
2018-01-20T17:13:44.984Z,27.90
2018-01-20T17:16:10.923Z,21.90
2018-01-20T17:18:36.915Z,23.70
2018-01-20T17:21:03.603Z,23.80
2018-01-20T17:23:29.607Z,20.23
2018-01-20T17:25:56.426Z,18.13
2018-01-20T17:28:22.400Z,16.80
2018-01-20T17:30:49.085Z,15.20
2018-01-20T17:33:15.144Z,16.20
2018-01-20T17:35:41.142Z,15.10
2018-01-20T17:38:07.171Z,18.57
2018-01-20T17:40:33.914Z,15.57
2018-01-20T17:43:00.604Z,19.00
2018-01-20T17:45:26.583Z,16.53
2018-01-20T17:47:52.555Z,15.57
2018-01-20T17:50:18.622Z,17.77
2018-01-20T17:52:44.615Z,20.77
2018-01-20T17:55:11.312Z,14.63
2018-01-20T17:57:37.292Z,19.00
2018-01-20T18:00:03.255Z,21.37
2018-01-20T18:02:29.205Z,18.57
2018-01-20T18:04:55.235Z,20.60
2018-01-20T18:07:21.189Z,23.67
2018-01-20T18:09:47.212Z,28.40
2018-01-20T18:12:13.239Z,22.17
2018-01-20T18:14:39.175Z,22.90
2018-01-20T18:17:05.131Z,27.43
2018-01-20T18:19:31.114Z,24.53
2018-01-20T18:21:57.129Z,22.20
2018-01-20T18:24:23.107Z,23.90
2018-01-20T18:26:49.816Z,18.20
2018-01-20T18:29:15.866Z,19.17
2018-01-20T18:31:41.835Z,19.63
2018-01-20T18:34:07.812Z,19.50
2018-01-20T18:36:33.755Z,21.67
2018-01-20T18:38:59.824Z,26.07
2018-01-20T18:41:25.865Z,21.93
2018-01-20T18:43:51.783Z,22.07
2018-01-20T18:46:18.072Z,20.00
2018-01-20T18:48:44.028Z,17.77
2018-01-20T18:51:10.147Z,19.83
2018-01-20T18:53:37.426Z,18.70
2018-01-20T18:56:03.678Z,18.93
2018-01-20T18:58:29.966Z,16.60
2018-01-20T19:00:56.652Z,18.27
2018-01-20T19:03:22.592Z,17.03
2018-01-20T19:05:48.900Z,18.10
2018-01-20T19:08:14.895Z,17.47
2018-01-20T19:10:40.883Z,13.93
2018-01-20T19:13:07.785Z,23.30
2018-01-20T19:15:33.723Z,25.77
2018-01-20T19:17:59.901Z,22.53
2018-01-20T19:20:26.718Z,22.23
2018-01-20T19:22:53.050Z,29.43
2018-01-20T19:25:19.028Z,27.20
2018-01-20T19:27:45.005Z,23.97
2018-01-20T19:30:11.184Z,40.20
2018-01-20T19:32:37.194Z,68.43
2018-01-20T19:35:03.189Z,52.10
2018-01-20T19:37:30.197Z,62.00
2018-01-20T19:39:56.240Z,42.73
2018-01-20T19:42:22.585Z,38.77
2018-01-20T19:44:48.786Z,26.20
2018-01-20T19:47:14.883Z,20.77
2018-01-20T19:49:40.879Z,18.27
2018-01-20T19:52:07.814Z,17.13
2018-01-20T19:54:34.090Z,16.50
2018-01-20T19:57:00.088Z,17.33
2018-01-20T19:59:26.764Z,18.40
2018-01-20T20:01:52.740Z,17.10
2018-01-20T20:04:18.727Z,17.50
2018-01-20T20:06:45.481Z,16.47
2018-01-20T20:09:11.575Z,18.47
2018-01-20T20:11:37.687Z,24.33
2018-01-20T20:14:03.754Z,22.13
2018-01-20T20:16:29.739Z,20.17
2018-01-20T20:18:55.745Z,22.53
2018-01-20T20:21:21.765Z,15.30
2018-01-20T20:23:47.798Z,16.77
2018-01-20T20:26:13.806Z,19.70
2018-01-20T20:28:39.887Z,20.73
2018-01-20T20:31:05.828Z,20.83
2018-01-20T20:33:31.764Z,19.70
2018-01-20T20:35:57.884Z,20.03
2018-01-20T20:38:23.871Z,20.03
2018-01-20T20:40:49.855Z,18.77
2018-01-20T20:43:15.880Z,22.33
2018-01-20T20:45:41.870Z,23.13
2018-01-20T20:48:07.899Z,20.20
2018-01-20T20:50:34.687Z,25.10
2018-01-20T20:53:00.652Z,22.80
2018-01-20T20:55:26.665Z,28.63
2018-01-20T20:57:52.671Z,28.33
2018-01-20T21:02:51.554Z,21.87
2018-01-20T21:05:17.504Z,22.10
2018-01-20T21:07:43.588Z,22.47
2018-01-20T21:10:09.584Z,24.40
2018-01-20T21:12:35.665Z,20.73
2018-01-20T21:15:02.340Z,21.70
2018-01-20T21:17:28.328Z,19.87
2018-01-20T21:19:55.100Z,26.60
2018-01-20T21:22:21.158Z,22.20
2018-01-20T21:24:47.159Z,18.60
2018-01-20T21:27:13.909Z,22.80
2018-01-20T21:29:40.674Z,15.03
2018-01-20T21:32:07.384Z,19.10
2018-01-20T21:34:33.415Z,19.00
2018-01-20T21:36:59.398Z,20.57
2018-01-20T21:39:26.095Z,22.33
2018-01-20T21:41:52.026Z,23.90
2018-01-20T21:44:18.136Z,19.53
2018-01-20T21:46:44.175Z,18.80
2018-01-20T21:49:10.211Z,19.57
2018-01-20T21:51:36.218Z,18.10
2018-01-20T21:54:02.931Z,19.17
2018-01-20T21:56:28.956Z,16.40
2018-01-20T21:58:54.900Z,18.10
2018-01-20T22:01:20.927Z,21.00
2018-01-20T22:03:46.881Z,16.87
2018-01-20T22:06:13.013Z,17.10
2018-01-20T22:08:39.067Z,21.10
2018-01-20T22:11:05.115Z,25.20
2018-01-20T22:13:31.145Z,22.70
2018-01-20T22:15:57.173Z,24.30
2018-01-20T22:18:23.186Z,18.53
2018-01-20T22:20:49.124Z,19.30
2018-01-20T22:23:15.115Z,19.53
2018-01-20T22:25:41.895Z,18.17
2018-01-20T22:28:07.913Z,23.03
2018-01-20T22:30:34.623Z,20.23
2018-01-20T22:33:00.564Z,15.70
2018-01-20T22:35:26.583Z,20.80
2018-01-20T22:37:52.540Z,21.30
2018-01-20T22:40:18.516Z,15.43
2018-01-20T22:42:45.298Z,15.07
2018-01-20T22:45:11.327Z,17.57
2018-01-20T22:47:37.314Z,13.50
2018-01-20T22:50:03.295Z,14.60
2018-01-20T22:52:29.232Z,18.07
2018-01-20T22:54:55.264Z,13.73
2018-01-20T22:57:21.223Z,16.77
2018-01-20T22:59:47.209Z,18.00
2018-01-20T23:02:13.992Z,15.93
2018-01-20T23:04:40.020Z,21.70
2018-01-20T23:07:05.979Z,18.20
2018-01-20T23:09:31.943Z,19.03
2018-01-20T23:11:57.921Z,15.93
2018-01-20T23:14:24.628Z,13.60
2018-01-20T23:16:50.602Z,12.67
2018-01-20T23:19:17.351Z,16.40
2018-01-20T23:21:44.122Z,16.80
2018-01-20T23:24:10.850Z,16.77
2018-01-20T23:26:36.861Z,13.70
2018-01-20T23:29:02.800Z,16.80
2018-01-20T23:31:28.755Z,16.57
2018-01-20T23:33:54.754Z,15.57
2018-01-20T23:36:20.781Z,14.37
2018-01-20T23:38:46.731Z,12.43
2018-01-20T23:41:12.680Z,16.27
2018-01-20T23:43:38.647Z,13.43
2018-01-20T23:46:05.327Z,14.83
2018-01-20T23:48:31.353Z,16.90
2018-01-20T23:50:57.292Z,18.13
2018-01-20T23:53:23.284Z,15.43
2018-01-20T23:55:49.219Z,18.77
2018-01-20T23:58:15.211Z,19.30
